createdAt,value
2017-09-29T00:01:56.168Z,13.30
2017-09-29T00:04:25.271Z,13.30
2017-09-29T00:06:53.954Z,13.30
2017-09-29T00:09:23.388Z,13.40
2017-09-29T00:11:51.870Z,13.40
2017-09-29T00:14:20.731Z,13.40
2017-09-29T00:16:49.115Z,13.50
2017-09-29T00:19:17.515Z,13.60
2017-09-29T00:21:45.920Z,13.60
2017-09-29T00:24:14.303Z,13.50
2017-09-29T00:26:43.407Z,13.50
2017-09-29T00:29:11.786Z,13.50
2017-09-29T00:31:40.168Z,13.40
2017-09-29T00:34:08.635Z,13.40
2017-09-29T00:36:37.861Z,13.40
2017-09-29T00:39:06.244Z,13.40
2017-09-29T00:41:34.668Z,13.40
2017-09-29T00:44:03.709Z,13.40
2017-09-29T00:46:32.171Z,13.40
2017-09-29T00:49:00.544Z,13.40
2017-09-29T00:51:28.939Z,13.40
2017-09-29T00:53:57.384Z,13.20
2017-09-29T00:56:26.536Z,13.20
2017-09-29T00:58:54.984Z,13.20
2017-09-29T01:01:23.375Z,13.30
2017-09-29T01:03:51.750Z,13.20
2017-09-29T01:06:20.171Z,13.20
2017-09-29T01:08:48.553Z,13.10
2017-09-29T01:11:17.112Z,13.10
2017-09-29T01:13:45.491Z,13.10
2017-09-29T01:16:13.891Z,13.10
2017-09-29T01:18:42.318Z,13.00
2017-09-29T01:21:10.699Z,12.90
2017-09-29T01:23:39.155Z,12.70
2017-09-29T01:26:08.303Z,12.70
2017-09-29T01:28:36.698Z,12.70
2017-09-29T01:31:05.111Z,12.70
2017-09-29T01:33:34.278Z,12.80
2017-09-29T01:36:02.739Z,12.80
2017-09-29T01:38:31.135Z,12.80
2017-09-29T01:40:59.523Z,12.70
2017-09-29T01:43:27.929Z,12.70
2017-09-29T01:45:57.112Z,12.60
2017-09-29T01:48:25.602Z,12.70
2017-09-29T01:50:54.758Z,12.70
2017-09-29T01:53:23.158Z,12.70
2017-09-29T01:55:51.562Z,12.70
2017-09-29T01:58:20.875Z,12.70
2017-09-29T02:00:49.494Z,12.60
2017-09-29T02:03:17.903Z,12.60
2017-09-29T02:05:46.297Z,12.60
2017-09-29T02:08:15.483Z,12.60
2017-09-29T02:10:43.905Z,12.50
2017-09-29T02:13:12.505Z,12.60
2017-09-29T02:15:40.932Z,12.50
2017-09-29T02:18:10.134Z,12.30
2017-09-29T02:20:39.318Z,12.30
2017-09-29T02:23:07.711Z,12.30
2017-09-29T02:25:36.907Z,12.40
2017-09-29T02:28:06.107Z,12.40
2017-09-29T02:30:35.270Z,12.40
2017-09-29T02:33:03.691Z,12.40
2017-09-29T02:35:32.855Z,12.30
2017-09-29T02:38:01.517Z,12.30
2017-09-29T02:40:29.932Z,12.10
2017-09-29T02:42:58.323Z,11.90
2017-09-29T02:45:27.503Z,12.20
2017-09-29T02:47:55.899Z,12.20
2017-09-29T02:50:25.251Z,12.30
2017-09-29T02:52:53.650Z,12.30
2017-09-29T02:55:22.036Z,12.30
2017-09-29T02:57:53.931Z,12.40
2017-09-29T03:00:28.247Z,12.20
2017-09-29T03:03:01.619Z,12.10
2017-09-29T03:05:35.717Z,12.20
2017-09-29T03:08:04.947Z,12.20
2017-09-29T03:10:34.659Z,12.30
2017-09-29T03:13:04.508Z,12.20
2017-09-29T03:15:32.906Z,12.20
2017-09-29T03:18:02.056Z,12.00
2017-09-29T03:20:31.245Z,12.00
2017-09-29T03:23:00.279Z,12.10
2017-09-29T03:25:29.734Z,12.10
2017-09-29T03:27:59.414Z,11.90
2017-09-29T03:30:28.290Z,11.90
2017-09-29T03:32:57.070Z,11.80
2017-09-29T03:35:25.478Z,11.70
2017-09-29T03:37:53.928Z,11.70
2017-09-29T03:40:22.746Z,11.70
2017-09-29T03:42:51.913Z,11.70
2017-09-29T03:45:20.328Z,11.70
2017-09-29T03:47:48.747Z,11.70
2017-09-29T03:50:23.510Z,11.70
2017-09-29T03:52:55.620Z,11.60
2017-09-29T03:55:32.087Z,11.50
2017-09-29T03:58:03.519Z,11.50
2017-09-29T04:00:31.967Z,11.60
2017-09-29T04:03:00.375Z,11.60
2017-09-29T04:05:28.780Z,11.60
2017-09-29T04:07:57.237Z,11.60
2017-09-29T04:10:25.889Z,11.60
2017-09-29T04:12:54.350Z,11.60
2017-09-29T04:15:22.751Z,11.60
2017-09-29T04:17:51.188Z,11.50
2017-09-29T04:20:19.609Z,11.40
2017-09-29T04:22:48.098Z,11.40
2017-09-29T04:25:16.572Z,11.50
2017-09-29T04:27:45.013Z,11.50
2017-09-29T04:30:13.465Z,11.40
2017-09-29T04:32:41.901Z,11.50
2017-09-29T04:35:10.282Z,11.50
2017-09-29T04:37:38.659Z,11.40
2017-09-29T04:40:07.142Z,11.40
2017-09-29T04:42:35.543Z,11.40
2017-09-29T04:45:03.934Z,11.50
2017-09-29T04:47:32.378Z,11.60
2017-09-29T04:50:00.759Z,11.50
2017-09-29T04:52:29.170Z,11.50
2017-09-29T04:54:58.536Z,11.50
2017-09-29T04:57:26.930Z,11.40
2017-09-29T04:59:55.311Z,11.40
2017-09-29T05:02:23.729Z,11.40
2017-09-29T05:04:52.889Z,11.40
2017-09-29T05:07:21.271Z,11.40
2017-09-29T05:09:49.785Z,11.40
2017-09-29T05:12:18.180Z,11.40
2017-09-29T05:14:46.595Z,11.50
2017-09-29T05:17:15.027Z,11.50
2017-09-29T05:19:44.172Z,11.40
2017-09-29T05:22:12.546Z,11.30
2017-09-29T05:24:40.954Z,11.40
2017-09-29T05:27:09.349Z,11.40
2017-09-29T05:29:38.505Z,11.50
2017-09-29T05:32:06.927Z,11.50
2017-09-29T05:34:36.205Z,11.70
2017-09-29T05:37:05.371Z,11.70
2017-09-29T05:39:33.799Z,11.70
2017-09-29T05:42:02.984Z,12.20
2017-09-29T05:44:31.363Z,12.10
2017-09-29T05:47:00.004Z,12.60
2017-09-29T05:49:28.390Z,13.00
2017-09-29T05:51:56.776Z,13.60
2017-09-29T05:54:25.187Z,14.00
2017-09-29T05:56:54.339Z,14.90
2017-09-29T05:59:22.723Z,14.80
2017-09-29T06:01:51.155Z,15.00
2017-09-29T06:04:20.334Z,14.80
2017-09-29T06:06:48.723Z,14.80
2017-09-29T06:09:17.914Z,15.80
2017-09-29T06:11:46.367Z,15.80
2017-09-29T06:14:14.742Z,16.40
2017-09-29T06:16:43.156Z,17.10
2017-09-29T06:19:12.316Z,18.30
2017-09-29T06:21:40.700Z,18.20
2017-09-29T06:24:09.158Z,18.60
2017-09-29T06:26:38.279Z,18.80
2017-09-29T06:29:06.661Z,19.40
2017-09-29T06:31:35.080Z,19.70
2017-09-29T06:34:03.464Z,19.70
2017-09-29T06:36:31.848Z,19.90
2017-09-29T06:39:00.267Z,20.40
2017-09-29T06:41:28.650Z,21.20
2017-09-29T06:43:57.041Z,21.50
2017-09-29T06:46:25.463Z,21.70
2017-09-29T06:48:53.844Z,22.30
2017-09-29T06:51:22.251Z,22.50
2017-09-29T06:53:50.675Z,22.20
2017-09-29T06:56:19.823Z,20.90
2017-09-29T06:58:48.207Z,20.90
2017-09-29T07:01:16.628Z,20.70
2017-09-29T07:03:45.778Z,20.00
2017-09-29T07:06:14.159Z,20.00
2017-09-29T07:08:42.585Z,18.80
2017-09-29T07:11:11.734Z,19.30
2017-09-29T07:13:40.134Z,19.30
2017-09-29T07:16:09.311Z,19.60
2017-09-29T07:18:37.692Z,19.50
2017-09-29T07:21:06.088Z,19.40
2017-09-29T07:23:34.502Z,18.90
2017-09-29T07:26:14.816Z,18.60
2017-09-29T07:29:07.539Z,19.00
2017-09-29T07:31:57.210Z,18.40
2017-09-29T07:34:42.068Z,18.50
2017-09-29T07:37:30.559Z,18.20
2017-09-29T07:40:17.719Z,18.80
2017-09-29T07:42:47.223Z,18.80
2017-09-29T07:45:15.612Z,18.80
2017-09-29T07:47:44.322Z,19.50
2017-09-29T07:50:12.704Z,19.60
2017-09-29T07:52:41.088Z,19.90
2017-09-29T07:55:09.498Z,20.30
2017-09-29T07:57:41.483Z,21.20
2017-09-29T08:00:11.989Z,21.20
2017-09-29T08:02:42.777Z,21.20
2017-09-29T08:05:16.465Z,21.60
2017-09-29T08:08:04.519Z,21.70
2017-09-29T08:10:41.532Z,22.40
2017-09-29T08:13:11.145Z,23.40
2017-09-29T08:15:40.076Z,24.50
2017-09-29T08:18:08.696Z,25.00
2017-09-29T08:20:37.397Z,25.90
2017-09-29T08:23:06.595Z,24.10
2017-09-29T08:25:34.968Z,24.10
2017-09-29T08:28:03.534Z,23.30
2017-09-29T08:30:31.908Z,23.10
2017-09-29T08:33:00.283Z,22.40
2017-09-29T08:35:28.687Z,22.00
2017-09-29T08:37:57.385Z,22.10
2017-09-29T08:40:26.037Z,22.20
2017-09-29T08:42:54.416Z,21.90
2017-09-29T08:45:22.807Z,21.70
2017-09-29T08:47:51.208Z,21.40
2017-09-29T08:50:19.591Z,21.00
2017-09-29T08:52:48.339Z,21.20
2017-09-29T08:55:16.714Z,21.50
2017-09-29T08:57:45.096Z,21.80
2017-09-29T09:00:13.563Z,22.20
2017-09-29T09:02:41.943Z,22.80
2017-09-29T09:05:10.367Z,23.60
2017-09-29T09:07:38.739Z,24.20
2017-09-29T09:10:07.119Z,25.00
2017-09-29T09:12:35.525Z,25.00
2017-09-29T09:15:04.669Z,25.20
2017-09-29T09:17:33.139Z,25.10
2017-09-29T09:20:01.515Z,25.00
2017-09-29T09:22:29.896Z,25.70
2017-09-29T09:24:58.291Z,25.60
2017-09-29T09:27:26.664Z,26.10
2017-09-29T09:29:55.102Z,26.00
2017-09-29T09:32:24.318Z,26.20
2017-09-29T09:34:52.699Z,26.20
2017-09-29T09:37:21.335Z,26.10
2017-09-29T09:39:49.844Z,26.20
2017-09-29T09:42:19.066Z,27.70
2017-09-29T09:44:47.455Z,27.70
2017-09-29T09:47:15.836Z,28.90
2017-09-29T09:49:44.231Z,29.20
2017-09-29T09:52:12.613Z,29.80
2017-09-29T09:54:41.278Z,30.40
2017-09-29T09:57:09.662Z,30.90
2017-09-29T09:59:38.046Z,31.50
2017-09-29T10:02:06.548Z,31.40
2017-09-29T10:04:34.927Z,32.10
2017-09-29T10:07:03.320Z,31.50
2017-09-29T10:09:31.726Z,30.80
2017-09-29T10:12:00.152Z,30.80
2017-09-29T10:14:31.361Z,30.20
2017-09-29T10:16:59.881Z,30.80
2017-09-29T10:19:28.262Z,30.70
2017-09-29T10:21:56.639Z,30.70
2017-09-29T10:24:25.058Z,29.40
2017-09-29T10:26:54.215Z,29.30
2017-09-29T10:29:22.591Z,29.30
2017-09-29T10:31:51.003Z,29.70
2017-09-29T10:34:20.162Z,28.60
2017-09-29T10:36:48.551Z,28.60
2017-09-29T10:39:17.036Z,28.40
2017-09-29T10:41:45.420Z,28.50
2017-09-29T10:44:13.807Z,28.60
2017-09-29T10:46:42.219Z,29.40
2017-09-29T10:49:10.600Z,29.10
2017-09-29T10:51:38.993Z,28.60
2017-09-29T10:54:07.408Z,28.40
2017-09-29T10:56:35.800Z,27.40
2017-09-29T10:59:04.959Z,27.90
2017-09-29T11:01:33.387Z,27.80
2017-09-29T11:04:02.536Z,27.20
2017-09-29T11:06:30.940Z,27.10
2017-09-29T11:08:59.388Z,26.60
2017-09-29T11:11:27.768Z,27.00
2017-09-29T11:13:56.147Z,26.90
2017-09-29T11:16:24.570Z,26.50
2017-09-29T11:18:52.953Z,26.20
2017-09-29T11:21:22.172Z,26.30
2017-09-29T11:23:50.587Z,26.30
2017-09-29T11:26:18.987Z,26.30
2017-09-29T11:28:47.385Z,25.50
2017-09-29T11:31:15.815Z,24.90
2017-09-29T11:33:44.349Z,24.70
2017-09-29T11:36:13.499Z,24.70
2017-09-29T11:38:41.928Z,24.70
2017-09-29T11:41:11.099Z,23.60
2017-09-29T11:43:39.492Z,23.60
2017-09-29T11:46:07.944Z,23.60
2017-09-29T11:48:36.339Z,23.60
2017-09-29T11:51:04.727Z,24.20
2017-09-29T11:53:33.147Z,24.80
2017-09-29T11:56:01.539Z,25.30
2017-09-29T11:58:29.920Z,25.40
2017-09-29T12:00:58.331Z,24.90
2017-09-29T12:03:26.723Z,24.80
2017-09-29T12:05:55.103Z,24.30
2017-09-29T12:08:23.778Z,24.20
2017-09-29T12:10:52.160Z,23.40
2017-09-29T12:13:20.536Z,23.00
2017-09-29T12:15:48.962Z,23.00
2017-09-29T12:18:17.344Z,22.60
2017-09-29T12:20:45.722Z,22.30
2017-09-29T12:23:14.128Z,22.60
2017-09-29T12:25:42.559Z,23.10
2017-09-29T12:28:11.732Z,24.00
2017-09-29T12:30:40.145Z,23.90
2017-09-29T12:33:08.535Z,24.60
2017-09-29T12:35:36.916Z,24.40
2017-09-29T12:38:05.331Z,25.00
2017-09-29T12:40:33.711Z,25.40
2017-09-29T12:43:02.092Z,25.70
2017-09-29T12:45:30.539Z,25.40
2017-09-29T12:47:58.918Z,25.80
2017-09-29T12:50:27.302Z,26.30
2017-09-29T12:52:55.719Z,27.30
2017-09-29T12:55:24.115Z,27.80
2017-09-29T12:57:53.278Z,28.50
2017-09-29T13:00:21.736Z,28.40
2017-09-29T13:02:50.130Z,27.40
2017-09-29T13:05:18.514Z,26.30
2017-09-29T13:07:46.926Z,25.70
2017-09-29T13:10:16.092Z,24.90
2017-09-29T13:12:44.493Z,24.80
2017-09-29T13:15:12.932Z,24.90
2017-09-29T13:17:41.327Z,23.80
2017-09-29T13:20:09.721Z,23.10
2017-09-29T13:22:38.147Z,22.70
2017-09-29T13:25:06.523Z,22.60
2017-09-29T13:27:34.899Z,22.50
2017-09-29T13:30:03.321Z,22.60
2017-09-29T13:32:32.476Z,22.70
2017-09-29T13:35:00.869Z,22.70
2017-09-29T13:37:29.543Z,23.10
2017-09-29T13:39:57.933Z,23.20
2017-09-29T13:42:26.322Z,22.70
2017-09-29T13:44:55.524Z,22.90
2017-09-29T13:47:23.921Z,22.90
2017-09-29T13:49:52.339Z,22.70
2017-09-29T13:52:20.759Z,22.20
2017-09-29T13:54:49.183Z,22.30
2017-09-29T13:57:18.335Z,22.50
2017-09-29T13:59:46.768Z,22.50
2017-09-29T14:02:15.924Z,22.20
2017-09-29T14:04:44.371Z,22.10
2017-09-29T14:07:12.800Z,22.30
2017-09-29T14:09:41.179Z,22.20
2017-09-29T14:12:09.566Z,22.40
2017-09-29T14:14:37.991Z,22.40
2017-09-29T14:17:06.388Z,22.20
2017-09-29T14:19:34.801Z,21.90
2017-09-29T14:22:03.993Z,21.80
2017-09-29T14:24:32.375Z,21.80
2017-09-29T14:27:00.875Z,21.60
2017-09-29T14:29:30.072Z,21.40
2017-09-29T14:31:58.463Z,21.30
2017-09-29T14:34:26.867Z,21.00
2017-09-29T14:36:55.288Z,20.70
2017-09-29T14:39:23.777Z,20.70
2017-09-29T14:41:53.032Z,20.60
2017-09-29T14:44:21.515Z,20.60
2017-09-29T14:46:49.909Z,20.60
2017-09-29T14:49:18.312Z,20.50
2017-09-29T14:51:47.790Z,20.60
2017-09-29T14:54:16.272Z,20.60
2017-09-29T14:56:44.712Z,20.40
2017-09-29T14:59:13.128Z,20.20
2017-09-29T15:01:41.540Z,20.20
2017-09-29T15:04:10.758Z,19.90
2017-09-29T15:06:39.203Z,19.90
2017-09-29T15:09:07.595Z,19.80
2017-09-29T15:11:36.771Z,19.50
2017-09-29T15:14:05.302Z,19.50
2017-09-29T15:16:33.814Z,19.40
2017-09-29T15:19:02.234Z,19.20
2017-09-29T15:21:31.584Z,19.20
2017-09-29T15:24:00.060Z,19.20
2017-09-29T15:26:28.519Z,19.20
2017-09-29T15:28:56.948Z,19.20
2017-09-29T15:31:25.410Z,19.20
2017-09-29T15:33:53.796Z,19.20
2017-09-29T15:36:22.260Z,19.20
2017-09-29T15:38:50.888Z,19.20
2017-09-29T15:41:19.280Z,19.20
2017-09-29T15:43:48.487Z,19.30
2017-09-29T15:46:17.009Z,19.30
2017-09-29T15:48:46.247Z,19.20
2017-09-29T15:51:14.731Z,19.30
2017-09-29T15:53:43.904Z,19.40
2017-09-29T15:56:12.325Z,19.40
2017-09-29T15:58:40.785Z,19.30
2017-09-29T16:01:10.691Z,19.10
2017-09-29T16:03:39.122Z,19.10
2017-09-29T16:06:07.778Z,19.10
2017-09-29T16:08:36.978Z,19.00
2017-09-29T16:11:06.221Z,18.90
2017-09-29T16:13:34.681Z,18.90
2017-09-29T16:16:03.063Z,18.90
2017-09-29T16:18:31.471Z,18.90
2017-09-29T16:20:59.899Z,18.80
2017-09-29T16:23:28.352Z,18.80
2017-09-29T16:25:56.915Z,18.70
2017-09-29T16:28:26.159Z,18.60
2017-09-29T16:30:54.543Z,18.60
2017-09-29T16:33:22.927Z,18.50
2017-09-29T16:35:51.395Z,18.50
2017-09-29T16:38:20.543Z,18.20
2017-09-29T16:40:48.932Z,18.20
2017-09-29T16:43:17.354Z,18.20
2017-09-29T16:45:45.816Z,18.10
2017-09-29T16:48:15.073Z,18.00
2017-09-29T16:50:43.521Z,18.00
2017-09-29T16:53:11.914Z,18.00
2017-09-29T16:55:40.517Z,18.00
2017-09-29T16:58:08.968Z,18.00
2017-09-29T17:00:37.358Z,17.90
2017-09-29T17:03:05.931Z,17.90
2017-09-29T17:05:34.434Z,17.80
2017-09-29T17:08:02.827Z,17.80
2017-09-29T17:10:31.211Z,17.70
2017-09-29T17:12:59.803Z,17.70
2017-09-29T17:15:28.202Z,17.70
2017-09-29T17:17:57.363Z,17.50
2017-09-29T17:20:25.779Z,17.50
2017-09-29T17:22:54.983Z,17.40
2017-09-29T17:25:24.147Z,17.50
2017-09-29T17:27:52.758Z,17.40
2017-09-29T17:30:21.928Z,17.40
2017-09-29T17:32:51.327Z,17.40
2017-09-29T17:35:20.115Z,17.40
2017-09-29T17:37:48.810Z,17.30
2017-09-29T17:40:17.466Z,17.30
2017-09-29T17:42:46.001Z,17.30
2017-09-29T17:45:15.164Z,17.30
2017-09-29T17:47:43.675Z,17.30
2017-09-29T17:50:12.862Z,17.30
2017-09-29T17:52:41.243Z,17.30
2017-09-29T17:55:10.409Z,17.20
2017-09-29T17:57:38.822Z,17.20
2017-09-29T18:00:07.976Z,17.20
2017-09-29T18:02:36.366Z,17.10
2017-09-29T18:05:04.787Z,17.20
2017-09-29T18:07:33.934Z,17.10
2017-09-29T18:10:02.342Z,17.10
2017-09-29T18:12:30.793Z,17.10
2017-09-29T18:14:59.172Z,17.20
2017-09-29T18:17:27.564Z,17.20
2017-09-29T18:19:56.846Z,17.30
2017-09-29T18:22:25.230Z,17.30
2017-09-29T18:24:53.611Z,17.20
2017-09-29T18:27:22.030Z,17.30
2017-09-29T18:29:51.195Z,17.20
2017-09-29T18:32:19.591Z,17.20
2017-09-29T18:34:48.041Z,17.20
2017-09-29T18:37:16.441Z,17.10
2017-09-29T18:39:44.873Z,17.10
2017-09-29T18:42:13.319Z,17.10
2017-09-29T18:44:50.871Z,17.20
2017-09-29T18:47:19.782Z,17.20
2017-09-29T18:49:48.175Z,17.20
2017-09-29T18:52:16.563Z,17.20
2017-09-29T18:54:45.762Z,17.00
2017-09-29T18:57:14.927Z,17.00
2017-09-29T18:59:43.315Z,17.00
2017-09-29T19:02:11.760Z,17.00
2017-09-29T19:04:40.158Z,17.00
2017-09-29T19:07:08.541Z,17.10
2017-09-29T19:09:37.212Z,17.10
2017-09-29T19:12:05.666Z,17.00
2017-09-29T19:14:34.054Z,17.00
2017-09-29T19:17:02.496Z,17.00
2017-09-29T19:19:31.652Z,16.90
2017-09-29T19:22:00.042Z,16.90
2017-09-29T19:24:28.464Z,16.90
2017-09-29T19:26:56.857Z,16.90
2017-09-29T19:29:25.241Z,16.90
2017-09-29T19:31:53.660Z,16.90
2017-09-29T19:34:22.047Z,16.80
2017-09-29T19:36:50.431Z,16.90
2017-09-29T19:39:18.875Z,16.90
2017-09-29T19:41:47.357Z,16.80
2017-09-29T19:44:15.757Z,16.80
2017-09-29T19:46:44.171Z,16.80
2017-09-29T19:49:13.333Z,16.80
2017-09-29T19:51:41.765Z,16.80
2017-09-29T19:54:10.583Z,16.80
2017-09-29T19:56:40.342Z,16.80
2017-09-29T19:59:09.548Z,16.80
2017-09-29T20:01:38.020Z,16.80
2017-09-29T20:04:07.158Z,16.60
2017-09-29T20:06:35.544Z,16.60
2017-09-29T20:09:03.986Z,16.60
2017-09-29T20:11:32.697Z,16.60
2017-09-29T20:14:01.110Z,16.50
2017-09-29T20:16:29.665Z,16.60
2017-09-29T20:18:58.079Z,16.60
2017-09-29T20:21:26.487Z,16.60
2017-09-29T20:23:56.020Z,16.50
2017-09-29T20:26:24.414Z,16.50
2017-09-29T20:28:52.802Z,16.50
2017-09-29T20:31:21.290Z,16.50
2017-09-29T20:33:49.698Z,16.50
2017-09-29T20:36:18.890Z,16.50
2017-09-29T20:38:48.235Z,16.50
2017-09-29T20:41:16.818Z,16.50
2017-09-29T20:43:45.284Z,16.50
2017-09-29T20:46:13.807Z,16.40
2017-09-29T20:48:42.206Z,16.30
2017-09-29T20:51:11.065Z,16.30
2017-09-29T20:53:39.583Z,16.30
2017-09-29T20:56:08.740Z,16.30
2017-09-29T20:58:37.707Z,16.30
2017-09-29T21:01:06.315Z,16.30
2017-09-29T21:03:34.859Z,16.30
2017-09-29T21:06:03.832Z,16.20
2017-09-29T21:08:32.632Z,16.20
2017-09-29T21:11:01.878Z,16.20
2017-09-29T21:13:30.307Z,16.10
2017-09-29T21:15:59.554Z,16.10
2017-09-29T21:18:28.755Z,16.10
2017-09-29T21:20:57.135Z,16.10
2017-09-29T21:23:25.565Z,16.20
2017-09-29T21:25:54.733Z,16.10
2017-09-29T21:28:23.115Z,16.10
2017-09-29T21:30:51.799Z,16.10
2017-09-29T21:33:20.179Z,16.10
2017-09-29T21:35:48.839Z,16.10
2017-09-29T21:38:17.314Z,16.10
2017-09-29T21:40:45.840Z,16.00
2017-09-29T21:43:14.991Z,16.00
2017-09-29T21:45:43.418Z,16.00
2017-09-29T21:48:12.565Z,15.90
2017-09-29T21:50:40.945Z,15.90
2017-09-29T21:53:09.387Z,15.90
2017-09-29T21:55:38.547Z,15.70
2017-09-29T21:58:06.978Z,15.70
2017-09-29T22:00:35.582Z,15.70
2017-09-29T22:03:03.967Z,15.70
2017-09-29T22:05:32.351Z,15.80
2017-09-29T22:08:00.760Z,15.70
2017-09-29T22:10:29.137Z,15.70
2017-09-29T22:12:58.303Z,15.70
2017-09-29T22:15:26.974Z,15.70
2017-09-29T22:17:55.367Z,15.80
2017-09-29T22:20:23.757Z,15.70
2017-09-29T22:22:52.183Z,15.70
2017-09-29T22:25:20.600Z,15.70
2017-09-29T22:27:49.774Z,15.60
2017-09-29T22:30:18.208Z,15.60
2017-09-29T22:32:46.593Z,15.50
2017-09-29T22:35:14.972Z,15.60
2017-09-29T22:37:43.605Z,15.60
2017-09-29T22:40:11.991Z,15.60
2017-09-29T22:42:40.367Z,15.60
2017-09-29T22:45:08.799Z,15.60
2017-09-29T22:47:37.958Z,15.50
2017-09-29T22:50:06.340Z,15.50
2017-09-29T22:52:34.755Z,15.60
2017-09-29T22:55:03.899Z,15.50
2017-09-29T22:57:32.275Z,15.50
2017-09-29T23:00:00.695Z,15.40
2017-09-29T23:02:29.081Z,15.50
2017-09-29T23:04:58.233Z,15.50
2017-09-29T23:07:26.643Z,15.50
2017-09-29T23:09:55.025Z,15.50
2017-09-29T23:12:23.412Z,15.50
2017-09-29T23:14:51.827Z,15.50
2017-09-29T23:17:20.207Z,15.50
2017-09-29T23:19:48.590Z,15.40
2017-09-29T23:22:17.003Z,15.30
2017-09-29T23:24:45.387Z,15.30
2017-09-29T23:27:13.767Z,15.40
2017-09-29T23:29:42.188Z,15.40
2017-09-29T23:32:10.590Z,15.40
2017-09-29T23:34:38.970Z,15.30
2017-09-29T23:37:07.410Z,15.20
2017-09-29T23:39:36.866Z,15.20
2017-09-29T23:42:05.242Z,15.20
2017-09-29T23:44:33.831Z,15.20
2017-09-29T23:47:02.207Z,15.30
2017-09-29T23:49:30.587Z,15.30
2017-09-29T23:51:59.032Z,15.30
2017-09-29T23:54:27.416Z,15.30
2017-09-29T23:56:55.794Z,15.20
2017-09-29T23:59:24.222Z,15.10
